jeudi 10 avril 2014

ALERTE SPOTTING 10/04/14

32A EC-LVP Vueling (couleur Linking Europe)
  dpt  VY1983  065h50
  VY1984/VY1985  12h10/ 12h45
 VY1986 /VY8029  17h25/18h15

320 F-GHQE Air COrsica (blanc avec titre)
   XK4501/XK4500   07h35/08h30


Manque les prévisions/immats BE / certains IB / AZ / TP / TU / BA / AH / KM
*** Heures en Local Time **
Prévisions matinales soumises à modifications de dernières minute. Voir le log du mois pour la version 'définitive' de la journée: http://www.airkalo.com/ORLYAVIATION/Logdumois.html

le TAF de la journée:


METAR: LFPO 100300Z 00000KT CAVOK 07/03 Q1024 NOSIG=
TAF LONG: LFPO 092300Z 1000/1106 35005KT CAVOK PROB30 TEMPO 1003/1006 6000